createdAt,value
2022-08-17T00:00:43.601Z,95075.03
2022-08-17T00:03:22.945Z,95077.75
2022-08-17T00:05:58.509Z,95081.28
2022-08-17T00:08:34.477Z,95071.84
2022-08-17T00:11:07.997Z,95068.94
2022-08-17T00:13:43.725Z,95074.16
2022-08-17T00:16:18.772Z,95073.66
2022-08-17T00:18:53.788Z,95082.88
2022-08-17T00:22:30.877Z,95072.66
2022-08-17T00:24:33.081Z,95074.88
2022-08-17T00:27:02.567Z,95068.34
2022-08-17T00:29:32.066Z,95065.63
2022-08-17T00:33:22.894Z,95072.78
2022-08-17T00:34:52.933Z,95060.38
2022-08-17T00:37:22.477Z,95062.38
2022-08-17T00:39:53.344Z,95060.06
2022-08-17T00:42:24.488Z,95059.06
2022-08-17T00:44:55.722Z,95055.66
2022-08-17T00:47:25.239Z,95053.28
2022-08-17T00:49:55.014Z,95051.19
2022-08-17T00:52:39.075Z,95045.28
2022-08-17T00:55:16.834Z,95040.97
2022-08-17T00:57:55.396Z,95037.78
2022-08-17T01:00:30.693Z,95042.97
2022-08-17T01:03:07.488Z,95039.78
2022-08-17T01:05:42.180Z,95043.88
2022-08-17T01:08:19.614Z,95041.47
2022-08-17T01:11:00.380Z,95051.78
2022-08-17T01:13:41.019Z,95051.09
2022-08-17T01:16:20.177Z,95042.47
2022-08-17T01:18:55.461Z,95035.78
2022-08-17T01:21:37.346Z,95040.69
2022-08-17T01:24:09.445Z,95041.00
2022-08-17T01:26:40.927Z,95042.91
2022-08-17T01:29:10.808Z,95037.50
2022-08-17T01:31:49.816Z,95039.69
2022-08-17T01:34:20.165Z,95040.78
2022-08-17T01:36:51.482Z,95032.47
2022-08-17T01:39:36.331Z,95035.69
2022-08-17T01:42:12.500Z,95034.97
2022-08-17T01:44:43.514Z,95039.09
2022-08-17T01:47:13.148Z,95041.28
2022-08-17T01:49:42.709Z,95046.47
2022-08-17T01:52:13.802Z,95043.09
2022-08-17T01:54:49.029Z,95034.78
2022-08-17T01:57:18.564Z,95031.28
2022-08-17T01:59:48.256Z,95046.19
2022-08-17T02:02:30.557Z,95049.19
2022-08-17T02:05:01.852Z,95048.41
2022-08-17T02:07:31.393Z,95045.69
2022-08-17T02:10:02.273Z,95043.78
2022-08-17T02:12:38.225Z,95044.88
2022-08-17T02:15:15.097Z,95043.28
2022-08-17T02:17:45.994Z,95035.25
2022-08-17T02:20:16.270Z,95042.06
2022-08-17T02:23:09.300Z,95031.56
2022-08-17T02:25:42.060Z,95035.34
2022-08-17T02:28:12.336Z,95021.84
2022-08-17T02:30:59.531Z,95023.75
2022-08-17T02:33:42.816Z,95015.34
2022-08-17T02:36:14.514Z,95015.03
2022-08-17T02:38:44.703Z,95010.16
2022-08-17T02:41:15.632Z,94996.63
2022-08-17T02:43:45.257Z,94998.53
2022-08-17T02:46:14.770Z,95000.94
2022-08-17T02:48:44.386Z,95000.72
2022-08-17T02:51:13.935Z,94996.19
2022-08-17T02:53:43.586Z,94995.22
2022-08-17T02:56:14.454Z,94995.00
2022-08-17T02:58:43.929Z,94988.28
2022-08-17T03:01:13.732Z,94986.19
2022-08-17T03:03:43.606Z,94992.47
2022-08-17T03:06:13.218Z,94997.69
2022-08-17T03:08:42.724Z,94996.06
2022-08-17T03:11:12.214Z,94997.75
2022-08-17T03:13:43.132Z,94992.97
2022-08-17T03:16:12.838Z,94993.88
2022-08-17T03:18:42.376Z,94997.66
2022-08-17T03:21:11.837Z,94991.47
2022-08-17T03:23:42.204Z,94988.25
2022-08-17T03:26:15.518Z,94984.75
2022-08-17T03:28:47.223Z,94993.16
2022-08-17T03:31:18.321Z,94994.47
2022-08-17T03:33:47.905Z,94994.75
2022-08-17T03:36:17.527Z,95006.13
2022-08-17T03:38:46.997Z,95006.44
2022-08-17T03:41:16.553Z,95006.44
2022-08-17T03:43:47.417Z,95004.84
2022-08-17T03:46:35.658Z,95004.31
2022-08-17T03:49:25.565Z,95009.81
2022-08-17T03:52:24.448Z,95016.09
2022-08-17T03:55:11.444Z,95017.00
2022-08-17T03:57:41.094Z,95018.38
2022-08-17T04:00:14.550Z,95024.38
2022-08-17T04:02:44.595Z,95025.16
2022-08-17T04:05:14.954Z,95024.38
2022-08-17T04:07:45.101Z,95025.16
2022-08-17T04:10:15.016Z,95024.06
2022-08-17T04:12:50.068Z,95026.47
2022-08-17T04:15:21.351Z,95024.06
2022-08-17T04:17:50.857Z,95020.56
2022-08-17T04:20:24.396Z,95017.28
2022-08-17T04:23:02.055Z,95009.69
2022-08-17T04:25:36.329Z,95006.88
2022-08-17T04:28:07.638Z,95003.09
2022-08-17T04:30:48.728Z,95001.72
2022-08-17T04:33:21.791Z,94996.00
2022-08-17T04:35:53.947Z,94999.50
2022-08-17T04:38:27.042Z,95002.72
2022-08-17T04:41:15.504Z,95002.13
2022-08-17T04:43:47.859Z,95014.16
2022-08-17T04:46:22.760Z,95009.56
2022-08-17T04:49:11.456Z,95023.56
2022-08-17T04:51:54.463Z,95032.38
2022-08-17T04:54:25.334Z,95032.88
2022-08-17T04:56:55.008Z,95038.19
2022-08-17T04:59:24.933Z,95038.31
2022-08-17T05:01:55.878Z,95046.13
2022-08-17T05:04:34.616Z,95045.03
2022-08-17T05:07:05.251Z,95043.34
2022-08-17T05:09:34.709Z,95042.66
2022-08-17T05:12:05.960Z,95047.88
2022-08-17T05:14:35.485Z,95040.78
2022-08-17T05:17:10.867Z,95041.19
2022-08-17T05:19:41.147Z,95040.28
2022-08-17T05:22:10.654Z,95037.97
2022-08-17T05:24:50.483Z,95038.38
2022-08-17T05:27:23.656Z,95039.59
2022-08-17T05:29:53.194Z,95038.66
2022-08-17T05:32:37.275Z,95039.88
2022-08-17T05:35:10.610Z,95043.47
2022-08-17T05:37:40.088Z,95042.78
2022-08-17T05:40:11.693Z,95032.50
2022-08-17T05:42:41.376Z,95041.22
2022-08-17T05:45:15.811Z,95036.06
2022-08-17T05:47:48.329Z,95043.09
2022-08-17T05:50:27.345Z,95042.22
2022-08-17T05:53:11.301Z,95035.47
2022-08-17T05:55:52.097Z,95035.69
2022-08-17T05:58:33.825Z,95043.25
2022-08-17T06:01:15.800Z,95036.84
2022-08-17T06:04:02.118Z,95044.59
2022-08-17T06:06:42.085Z,95045.28
2022-08-17T06:09:33.835Z,95053.63
2022-08-17T06:12:25.345Z,95065.03
2022-08-17T06:15:24.615Z,95053.59
2022-08-17T06:18:01.280Z,95045.66
2022-08-17T06:20:47.338Z,95048.53
2022-08-17T06:23:28.103Z,95060.88
2022-08-17T06:26:06.999Z,95056.41
2022-08-17T06:28:45.292Z,95057.22
2022-08-17T06:31:33.504Z,95059.16
2022-08-17T06:34:08.359Z,95065.25
2022-08-17T06:36:57.252Z,95065.59
2022-08-17T06:39:44.578Z,95070.50
2022-08-17T06:42:54.688Z,95082.81
2022-08-17T06:45:31.938Z,95085.00
2022-08-17T06:48:11.741Z,95089.59
2022-08-17T06:50:53.397Z,95089.28
2022-08-17T06:53:29.597Z,95090.78
2022-08-17T06:56:05.903Z,95083.16
2022-08-17T06:58:37.340Z,95086.38
2022-08-17T07:01:15.514Z,95099.06
2022-08-17T07:03:56.005Z,95103.94
2022-08-17T07:06:37.757Z,95103.66
2022-08-17T07:09:18.096Z,95110.25
2022-08-17T07:11:54.639Z,95114.06
2022-08-17T07:14:37.625Z,95112.63
2022-08-17T07:17:11.737Z,95108.19
2022-08-17T07:19:44.359Z,95120.69
2022-08-17T07:22:22.843Z,95116.75
2022-08-17T07:24:58.388Z,95121.09
2022-08-17T07:27:31.715Z,95113.72
2022-08-17T07:30:11.103Z,95123.97
2022-08-17T07:32:50.707Z,95120.00
2022-08-17T07:35:23.572Z,95122.03
2022-08-17T07:38:25.456Z,95119.84
2022-08-17T07:41:07.497Z,95119.81
2022-08-17T07:43:46.907Z,95123.78
2022-08-17T07:46:39.545Z,95116.31
2022-08-17T07:49:27.354Z,95112.88
2022-08-17T07:52:24.815Z,95120.78
2022-08-17T07:54:56.337Z,95117.72
2022-08-17T07:57:36.862Z,95126.66
2022-08-17T08:00:31.420Z,95115.47
2022-08-17T08:03:16.548Z,95116.56
2022-08-17T08:05:55.908Z,95110.19
2022-08-17T08:08:34.188Z,95105.94
2022-08-17T08:11:10.978Z,95115.28
2022-08-17T08:13:45.518Z,95115.19
2022-08-17T08:16:30.203Z,95121.88
2022-08-17T08:19:02.695Z,95117.56
2022-08-17T08:21:47.849Z,95113.31
2022-08-17T08:24:47.570Z,95101.47
2022-08-17T08:27:33.526Z,95101.75
2022-08-17T08:30:11.695Z,95097.34
2022-08-17T08:33:17.204Z,95089.69
2022-08-17T08:35:53.986Z,95086.44
2022-08-17T08:38:45.339Z,95095.31
2022-08-17T08:41:34.031Z,95099.16
2022-08-17T08:45:00.295Z,95102.91
2022-08-17T08:47:46.444Z,95092.59
2022-08-17T08:50:38.029Z,95083.41
2022-08-17T08:53:28.929Z,95094.31
2022-08-17T08:56:09.508Z,95089.00
2022-08-17T08:58:50.497Z,95081.75
2022-08-17T09:01:30.351Z,95087.06
2022-08-17T09:05:02.738Z,95088.31
2022-08-17T09:07:43.420Z,95093.25
2022-08-17T09:10:25.392Z,95093.00
2022-08-17T09:13:10.587Z,95105.78
2022-08-17T09:15:46.319Z,95108.69
2022-08-17T09:19:02.414Z,95103.25
2022-08-17T09:21:25.053Z,95095.97
2022-08-17T09:24:05.113Z,95097.19
2022-08-17T09:26:48.810Z,95087.88
2022-08-17T09:29:24.359Z,95089.16
2022-08-17T09:31:58.449Z,95086.91
2022-08-17T09:34:43.523Z,95096.47
2022-08-17T09:37:26.330Z,95092.97
2022-08-17T09:40:11.101Z,95091.84
2022-08-17T09:42:50.111Z,95080.84
2022-08-17T09:45:33.661Z,95090.28
2022-08-17T09:48:14.287Z,95088.34
2022-08-17T09:51:05.947Z,95078.13
2022-08-17T09:53:40.663Z,95078.16
2022-08-17T09:56:56.437Z,95082.91
2022-08-17T09:59:56.248Z,95088.09
2022-08-17T10:03:16.173Z,95088.09
2022-08-17T10:05:56.565Z,95093.25
2022-08-17T10:08:40.353Z,95088.09
2022-08-17T10:11:48.165Z,95096.41
2022-08-17T10:14:37.746Z,95101.09
2022-08-17T10:17:24.782Z,95095.22
2022-08-17T10:20:07.798Z,95087.25
2022-08-17T10:23:15.004Z,95093.22
2022-08-17T10:26:08.409Z,95095.94
2022-08-17T10:28:48.193Z,95099.88
2022-08-17T10:31:36.259Z,95086.75
2022-08-17T10:34:43.871Z,95087.44
2022-08-17T10:37:46.385Z,95094.81
2022-08-17T10:40:26.511Z,95088.38
2022-08-17T10:43:04.337Z,95083.59
2022-08-17T10:45:47.691Z,95082.44
2022-08-17T10:48:33.336Z,95085.13
2022-08-17T10:51:10.278Z,95091.03
2022-08-17T10:54:02.187Z,95086.94
2022-08-17T10:56:51.369Z,95090.47
2022-08-17T10:59:53.075Z,95093.75
2022-08-17T11:02:34.999Z,95097.91
2022-08-17T11:05:54.050Z,95108.94
2022-08-17T11:09:28.861Z,95096.84
2022-08-17T11:12:27.841Z,95107.97
2022-08-17T11:15:21.943Z,95095.66
2022-08-17T11:18:15.123Z,95090.06
2022-08-17T11:21:40.218Z,95084.56
2022-08-17T11:24:24.090Z,95077.22
2022-08-17T11:27:13.488Z,95075.63
2022-08-17T11:29:59.517Z,95075.03
2022-08-17T11:32:48.097Z,95074.72
2022-08-17T11:35:39.933Z,95065.06
2022-08-17T11:38:25.281Z,95078.06
2022-08-17T11:41:20.700Z,95077.19
2022-08-17T11:44:48.060Z,95077.13
2022-08-17T11:47:53.077Z,95084.13
2022-08-17T11:51:06.345Z,95090.59
2022-08-17T11:57:41.136Z,95091.75
2022-08-17T12:00:56.706Z,95089.03
2022-08-17T12:03:56.799Z,95088.56
2022-08-17T12:06:48.282Z,95082.81
2022-08-17T12:09:25.014Z,95085.63
2022-08-17T12:12:13.242Z,95085.84
2022-08-17T12:15:10.454Z,95089.47
2022-08-17T12:17:42.931Z,95094.94
2022-08-17T12:20:23.103Z,95085.44
2022-08-17T12:23:06.936Z,95085.16
2022-08-17T12:25:44.253Z,95077.75
2022-08-17T12:28:27.886Z,95075.13
2022-08-17T12:31:03.642Z,95073.78
2022-08-17T12:33:33.332Z,95067.69
2022-08-17T12:36:07.492Z,95067.16
2022-08-17T12:38:40.944Z,95063.06
2022-08-17T12:41:29.146Z,95064.56
2022-08-17T12:44:02.634Z,95073.16
2022-08-17T12:46:46.048Z,95068.19
2022-08-17T12:49:31.217Z,95066.94
2022-08-17T12:52:26.600Z,95063.66
2022-08-17T12:55:02.239Z,95048.53
2022-08-17T12:57:36.789Z,95040.25
2022-08-17T13:00:17.760Z,95049.41
2022-08-17T13:02:52.304Z,95050.03
2022-08-17T13:05:28.622Z,95052.03
2022-08-17T13:08:01.184Z,95050.16
2022-08-17T13:10:36.254Z,95048.25
2022-08-17T13:13:20.661Z,95039.88
2022-08-17T13:15:57.107Z,95037.88
2022-08-17T13:18:43.652Z,95043.38
2022-08-17T13:21:27.208Z,95046.78
2022-08-17T13:24:04.918Z,95042.44
2022-08-17T13:26:40.904Z,95042.41
2022-08-17T13:29:24.754Z,95044.97
2022-08-17T13:32:13.498Z,95040.22
2022-08-17T13:35:12.390Z,95037.09
2022-08-17T13:37:41.019Z,95049.75
2022-08-17T13:40:37.833Z,95045.28
2022-08-17T13:43:10.087Z,95045.91
2022-08-17T13:45:53.318Z,95047.63
2022-08-17T13:48:32.043Z,95043.47
2022-08-17T13:51:44.922Z,95028.41
2022-08-17T13:54:31.213Z,95037.22
2022-08-17T13:57:05.205Z,95037.97
2022-08-17T13:59:53.553Z,95040.66
2022-08-17T14:02:28.313Z,95030.16
2022-08-17T14:05:00.506Z,95033.56
2022-08-17T14:07:37.593Z,95017.97
2022-08-17T14:10:15.416Z,95018.56
2022-08-17T14:12:46.636Z,95010.78
2022-08-17T14:15:22.233Z,94997.13
2022-08-17T14:17:53.359Z,95006.88
2022-08-17T14:20:24.528Z,94996.78
2022-08-17T14:22:56.976Z,94993.44
2022-08-17T14:25:30.064Z,94999.91
2022-08-17T14:27:59.972Z,94988.63
2022-08-17T14:30:31.844Z,94982.22
2022-08-17T14:33:02.169Z,94968.50
2022-08-17T14:35:31.917Z,94962.28
2022-08-17T14:38:02.096Z,94968.03
2022-08-17T14:40:33.364Z,94969.03
2022-08-17T14:43:02.897Z,94971.84
2022-08-17T14:45:33.927Z,94968.56
2022-08-17T14:48:07.628Z,94966.53
2022-08-17T14:50:41.237Z,94963.03
2022-08-17T14:53:15.953Z,94961.41
2022-08-17T14:55:46.852Z,94967.25
2022-08-17T14:58:16.723Z,94954.75
2022-08-17T15:00:50.913Z,94962.38
2022-08-17T15:03:20.748Z,94970.09
2022-08-17T15:05:50.389Z,94979.03
2022-08-17T15:08:21.600Z,94983.81
2022-08-17T15:10:52.550Z,94974.00
2022-08-17T15:13:27.805Z,94968.50
2022-08-17T15:16:00.310Z,94974.91
2022-08-17T15:18:30.374Z,94972.13
2022-08-17T15:21:00.349Z,94981.91
2022-08-17T15:23:29.912Z,94979.66
2022-08-17T15:25:59.927Z,94982.78
2022-08-17T15:28:29.713Z,94987.06
2022-08-17T15:31:00.598Z,94986.69
2022-08-17T15:33:31.135Z,94988.25
2022-08-17T15:36:06.865Z,94987.56
2022-08-17T15:38:40.125Z,94975.53
2022-08-17T15:41:15.102Z,94982.81
2022-08-17T15:43:46.260Z,94971.69
2022-08-17T15:46:20.942Z,94974.47
2022-08-17T15:48:54.813Z,94983.22
2022-08-17T15:51:27.755Z,94985.13
2022-08-17T15:54:04.388Z,94989.66
2022-08-17T15:56:47.114Z,94990.28
2022-08-17T15:59:16.630Z,94997.97
2022-08-17T16:03:13.251Z,94999.94
2022-08-17T16:04:37.000Z,94993.81
2022-08-17T16:07:10.453Z,94994.31
2022-08-17T16:09:39.992Z,94994.06
2022-08-17T16:12:13.669Z,94981.97
2022-08-17T16:14:43.374Z,94983.31
2022-08-17T16:17:39.098Z,94983.25
2022-08-17T16:20:05.390Z,94976.13
2022-08-17T16:22:38.941Z,94989.00
2022-08-17T16:25:14.992Z,94988.75
2022-08-17T16:27:45.806Z,94987.25
2022-08-17T16:30:18.009Z,94982.19
2022-08-17T16:32:52.912Z,94977.56
2022-08-17T16:35:26.754Z,94959.75
2022-08-17T16:37:59.371Z,94966.13
2022-08-17T16:40:35.722Z,94964.69
2022-08-17T16:43:10.433Z,94966.78
2022-08-17T16:45:41.161Z,94966.47
2022-08-17T16:48:12.020Z,94954.31
2022-08-17T16:50:42.493Z,94954.03
2022-08-17T16:53:32.365Z,94951.34
2022-08-17T16:56:01.818Z,94949.88
2022-08-17T16:58:31.406Z,94950.38
2022-08-17T17:01:00.946Z,94942.16
2022-08-17T17:03:33.138Z,94948.97
2022-08-17T17:06:18.778Z,94942.72
2022-08-17T17:08:58.354Z,94930.50
2022-08-17T17:11:36.567Z,94929.38
2022-08-17T17:14:11.935Z,94929.78
2022-08-17T17:16:52.481Z,94934.56
2022-08-17T17:19:35.335Z,94929.91
2022-08-17T17:22:16.279Z,94932.00
2022-08-17T17:24:59.549Z,94920.19
2022-08-17T17:27:43.979Z,94920.72
2022-08-17T17:30:20.715Z,94918.78
2022-08-17T17:32:57.084Z,94922.03
2022-08-17T17:35:35.917Z,94928.78
2022-08-17T17:38:17.548Z,94925.22
2022-08-17T17:40:51.854Z,94917.72
2022-08-17T17:43:41.777Z,94927.56
2022-08-17T17:46:26.777Z,94916.50
2022-08-17T17:48:57.926Z,94926.72
2022-08-17T17:52:09.111Z,94928.19
2022-08-17T17:55:01.429Z,94920.97
2022-08-17T17:57:50.978Z,94921.66
2022-08-17T18:00:26.046Z,94919.56
2022-08-17T18:03:26.285Z,94903.69
2022-08-17T18:06:23.200Z,94921.72
2022-08-17T18:09:12.082Z,94921.59
2022-08-17T18:12:23.401Z,94910.03
2022-08-17T18:15:29.604Z,94911.84
2022-08-17T18:18:38.687Z,94913.25
2022-08-17T18:21:19.221Z,94918.19
2022-08-17T18:23:56.976Z,94928.59
2022-08-17T18:26:46.858Z,94933.47
2022-08-17T18:29:44.118Z,94917.13
2022-08-17T18:32:38.076Z,94918.13
2022-08-17T18:35:35.028Z,94920.22
2022-08-17T18:38:29.505Z,94920.06
2022-08-17T18:41:23.693Z,94917.97
2022-08-17T18:44:17.778Z,94922.84
2022-08-17T18:46:47.312Z,94917.28
2022-08-17T18:49:30.004Z,94911.66
2022-08-17T18:52:15.478Z,94909.59
2022-08-17T18:55:09.120Z,94922.78
2022-08-17T18:57:45.243Z,94917.16
2022-08-17T19:00:36.870Z,94915.50
2022-08-17T19:03:25.657Z,94912.28
2022-08-17T19:06:17.617Z,94905.91
2022-08-17T19:08:47.191Z,94905.13
2022-08-17T19:11:28.654Z,94902.75
2022-08-17T19:14:08.441Z,94898.34
2022-08-17T19:16:50.111Z,94898.69
2022-08-17T19:19:29.729Z,94893.78
2022-08-17T19:22:10.995Z,94908.53
2022-08-17T19:24:47.475Z,94901.72
2022-08-17T19:27:24.045Z,94909.72
2022-08-17T19:30:08.366Z,94918.16
2022-08-17T19:32:38.629Z,94918.03
2022-08-17T19:35:17.182Z,94932.03
2022-08-17T19:38:04.781Z,94928.41
2022-08-17T19:41:04.055Z,94933.03
2022-08-17T19:44:27.085Z,94938.22
2022-08-17T19:47:19.593Z,94930.88
2022-08-17T19:50:11.592Z,94942.56
2022-08-17T19:52:50.550Z,94942.84
2022-08-17T19:55:31.665Z,94938.09
2022-08-17T19:58:11.268Z,94938.38
2022-08-17T20:00:52.723Z,94932.84
2022-08-17T20:03:31.349Z,94940.97
2022-08-17T20:06:13.767Z,94953.09
2022-08-17T20:08:58.874Z,94950.72
2022-08-17T20:11:38.988Z,94940.81
2022-08-17T20:14:16.051Z,94947.47
2022-08-17T20:16:46.426Z,94954.88
2022-08-17T20:19:29.229Z,94947.03
2022-08-17T20:22:10.861Z,94940.31
2022-08-17T20:24:48.584Z,94932.88
2022-08-17T20:27:31.320Z,94927.81
2022-08-17T20:30:10.383Z,94922.25
2022-08-17T20:32:55.392Z,94936.34
2022-08-17T20:35:30.949Z,94931.56
2022-08-17T20:38:05.142Z,94919.00
2022-08-17T20:40:39.662Z,94924.41
2022-08-17T20:44:02.569Z,94910.22
2022-08-17T20:46:56.892Z,94903.06
2022-08-17T20:49:52.506Z,94906.53
2022-08-17T20:52:53.686Z,94912.16
2022-08-17T20:55:55.780Z,94922.25
2022-08-17T20:58:47.766Z,94927.22
2022-08-17T21:01:36.630Z,94918.22
2022-08-17T21:04:43.771Z,94922.09
2022-08-17T21:07:30.007Z,94916.53
2022-08-17T21:10:19.415Z,94918.03
2022-08-17T21:12:55.793Z,94922.63
2022-08-17T21:15:36.965Z,94909.66
2022-08-17T21:18:15.885Z,94907.25
2022-08-17T21:21:07.058Z,94888.09
2022-08-17T21:24:09.910Z,94899.75
2022-08-17T21:26:55.507Z,94895.72
2022-08-17T21:29:31.805Z,94905.09
2022-08-17T21:32:23.778Z,94910.84
2022-08-17T21:35:29.965Z,94919.31
2022-08-17T21:38:05.005Z,94923.56
2022-08-17T21:40:36.241Z,94934.16
2022-08-17T21:43:29.245Z,94939.97
2022-08-17T21:46:09.294Z,94959.31
2022-08-17T21:48:48.359Z,94973.25
2022-08-17T21:51:25.206Z,94995.63
2022-08-17T21:53:58.285Z,95009.59
2022-08-17T21:56:32.942Z,95021.88
2022-08-17T21:59:08.943Z,95025.41
2022-08-17T22:01:42.918Z,95060.59
2022-08-17T22:04:25.685Z,95069.00
2022-08-17T22:06:57.221Z,95065.50
2022-08-17T22:09:32.027Z,95081.31
2022-08-17T22:12:09.099Z,95090.78
2022-08-17T22:14:52.821Z,95095.09
2022-08-17T22:17:27.340Z,95094.56
2022-08-17T22:20:02.346Z,95104.75
2022-08-17T22:22:59.777Z,95125.66
2022-08-17T22:25:31.002Z,95127.03
2022-08-17T22:28:03.834Z,95143.75
2022-08-17T22:30:39.320Z,95145.31
2022-08-17T22:33:40.627Z,95161.19
2022-08-17T22:36:30.939Z,95178.94
2022-08-17T22:39:03.536Z,95200.91
2022-08-17T22:41:43.139Z,95202.44
2022-08-17T22:44:24.308Z,95188.13
2022-08-17T22:47:04.428Z,95211.50
2022-08-17T22:49:53.881Z,95228.72
2022-08-17T22:52:58.270Z,95239.88
2022-08-17T22:55:49.460Z,95243.16
2022-08-17T22:58:42.602Z,95214.34
2022-08-17T23:01:28.151Z,95181.03
2022-08-17T23:04:03.972Z,95164.88
2022-08-17T23:06:38.317Z,95162.72
2022-08-17T23:09:09.258Z,95161.16
2022-08-17T23:11:49.102Z,95163.06
2022-08-17T23:14:22.798Z,95169.66
2022-08-17T23:16:52.542Z,95168.69
2022-08-17T23:19:23.378Z,95158.59
2022-08-17T23:21:54.147Z,95150.16
2022-08-17T23:24:30.485Z,95159.00
2022-08-17T23:27:00.137Z,95161.41
2022-08-17T23:29:30.265Z,95171.00
2022-08-17T23:32:01.363Z,95177.75
2022-08-17T23:34:32.478Z,95193.28
2022-08-17T23:37:02.215Z,95189.13
2022-08-17T23:39:32.428Z,95176.78
2022-08-17T23:42:07.833Z,95192.31
2022-08-17T23:44:39.860Z,95214.56
2022-08-17T23:47:09.706Z,95215.69
2022-08-17T23:49:41.306Z,95213.28
2022-08-17T23:52:15.008Z,95204.19
2022-08-17T23:54:48.385Z,95213.31
2022-08-17T23:57:33.892Z,95207.53
